Time,TemperatureF,DewpointF,PressureIn,WindDirection,WindDirectionDegrees,WindSpeedMPH,WindSpeedGustMPH,Humidity,HourlyPrecipIn,Conditions,Clouds,dailyrainin,SoftwareType,DateUTC
2013-03-19 00:02:00,29.2,23.8,30.15,NNE,23,0.0,0.0,80,0.00,,,0.00,WUHU216HW,2013-03-19 07:02:00,
2013-03-19 00:28:00,28.4,23.0,30.16,NNE,23,0.0,0.0,80,0.00,,,0.00,WUHU216HW,2013-03-19 07:28:00,
2013-03-19 00:33:00,28.4,23.0,30.16,NNE,23,0.0,0.0,80,0.00,,,0.00,WUHU216HW,2013-03-19 07:33:00,
2013-03-19 00:57:00,28.3,22.9,30.16,SSW,203,0.0,0.0,80,0.00,,,0.00,WUHU216HW,2013-03-19 07:57:00,
2013-03-19 01:02:00,28.3,22.9,30.16,SSW,203,0.0,0.0,80,0.00,,,0.00,WUHU216HW,2013-03-19 08:02:00,
2013-03-19 01:28:00,27.5,22.1,30.17,ENE,68,0.0,0.0,80,0.00,,,0.00,WUHU216HW,2013-03-19 08:28:00,
2013-03-19 01:33:00,27.5,22.1,30.17,ENE,68,0.0,0.0,80,0.00,,,0.00,WUHU216HW,2013-03-19 08:33:00,
2013-03-19 01:57:00,27.0,21.9,30.17,SSW,203,0.0,0.0,81,0.00,,,0.00,WUHU216HW,2013-03-19 08:57:00,
2013-03-19 02:02:00,27.0,21.9,30.17,SSW,203,0.0,0.0,81,0.00,,,0.00,WUHU216HW,2013-03-19 09:02:00,
2013-03-19 02:28:00,26.6,21.5,30.18,ESE,113,0.0,0.0,81,0.00,,,0.00,WUHU216HW,2013-03-19 09:28:00,
2013-03-19 02:33:00,26.6,21.5,30.18,ESE,113,0.0,0.0,81,0.00,,,0.00,WUHU216HW,2013-03-19 09:33:00,
2013-03-19 02:57:00,26.1,20.8,30.19,East,90,0.0,0.0,80,0.00,,,0.00,WUHU216HW,2013-03-19 09:57:00,
2013-03-19 03:02:00,26.1,20.8,30.19,East,90,0.0,0.0,80,0.00,,,0.00,WUHU216HW,2013-03-19 10:02:00,
2013-03-19 03:28:00,25.6,20.3,30.19,ENE,68,0.0,0.0,80,0.00,,,0.00,WUHU216HW,2013-03-19 10:28:00,
2013-03-19 03:33:00,25.6,20.3,30.19,ENE,68,0.0,0.0,80,0.00,,,0.00,WUHU216HW,2013-03-19 10:33:00,
2013-03-19 03:57:00,25.6,20.5,30.19,ENE,68,0.0,0.0,81,0.00,,,0.00,WUHU216HW,2013-03-19 10:57:00,
2013-03-19 04:02:00,25.6,20.5,30.19,ENE,68,0.0,0.0,81,0.00,,,0.00,WUHU216HW,2013-03-19 11:02:00,
2013-03-19 04:28:00,25.0,19.8,30.22,East,90,0.0,0.0,80,0.00,,,0.00,WUHU216HW,2013-03-19 11:28:00,
2013-03-19 04:33:00,25.0,19.8,30.22,East,90,0.0,0.0,80,0.00,,,0.00,WUHU216HW,2013-03-19 11:33:00,
2013-03-19 04:57:00,24.8,19.9,30.22,NE,45,0.0,0.0,81,0.00,,,0.00,WUHU216HW,2013-03-19 11:57:00,
2013-03-19 05:02:00,24.8,19.6,30.22,NE,45,0.0,0.0,80,0.00,,,0.00,WUHU216HW,2013-03-19 12:02:00,
2013-03-19 05:07:00,24.8,19.6,30.22,NE,45,0.0,0.0,80,0.00,,,0.00,WUHU216HW,2013-03-19 12:07:00,
2013-03-19 05:28:00,24.3,19.4,30.22,NE,45,0.4,0.4,81,0.00,,,0.00,WUHU216HW,2013-03-19 12:28:00,
2013-03-19 05:33:00,24.3,19.4,30.22,NE,45,0.4,0.4,81,0.00,,,0.00,WUHU216HW,2013-03-19 12:33:00,
2013-03-19 05:57:00,23.8,18.8,30.23,NE,45,0.0,0.0,81,0.00,,,0.00,WUHU216HW,2013-03-19 12:57:00,
2013-03-19 06:02:00,23.8,18.8,30.23,NE,45,0.0,0.0,81,0.00,,,0.00,WUHU216HW,2013-03-19 13:02:00,
2013-03-19 06:07:00,23.8,18.8,30.23,NE,45,0.0,0.0,81,0.00,,,0.00,WUHU216HW,2013-03-19 13:07:00,
2013-03-19 06:28:00,23.4,18.2,30.23,NE,45,0.0,0.0,80,0.00,,,0.00,WUHU216HW,2013-03-19 13:28:00,
2013-03-19 06:33:00,23.4,18.2,30.23,NE,45,0.0,0.0,80,0.00,,,0.00,WUHU216HW,2013-03-19 13:33:00,
2013-03-19 06:38:00,23.4,18.2,30.23,NE,45,0.0,0.0,80,0.00,,,0.00,WUHU216HW,2013-03-19 13:38:00,
2013-03-19 06:57:00,23.0,19.2,30.23,NE,45,0.0,0.0,85,0.00,,,0.00,WUHU216HW,2013-03-19 13:57:00,
2013-03-19 07:02:00,23.0,19.2,30.23,NE,45,0.0,0.0,85,0.00,,,0.00,WUHU216HW,2013-03-19 14:02:00,
2013-03-19 07:07:00,23.0,19.2,30.23,NE,45,0.0,0.0,85,0.00,,,0.00,WUHU216HW,2013-03-19 14:07:00,
2013-03-19 07:28:00,23.2,18.5,30.24,NNE,23,0.0,0.0,82,0.00,,,0.00,WUHU216HW,2013-03-19 14:28:00,
2013-03-19 07:33:00,23.2,18.5,30.24,NNE,23,0.0,0.0,82,0.00,,,0.00,WUHU216HW,2013-03-19 14:33:00,
2013-03-19 07:58:00,24.8,20.4,30.25,WSW,248,0.0,0.0,83,0.00,,,0.00,WUHU216HW,2013-03-19 14:58:00,
2013-03-19 08:02:00,24.8,20.4,30.25,WSW,248,0.0,0.0,83,0.00,,,0.00,WUHU216HW,2013-03-19 15:02:00,
2013-03-19 08:28:00,26.1,21.3,30.25,South,180,1.6,1.6,82,0.00,,,0.00,WUHU216HW,2013-03-19 15:28:00,
2013-03-19 08:33:00,26.1,21.3,30.25,South,180,1.6,1.6,82,0.00,,,0.00,WUHU216HW,2013-03-19 15:33:00,
2013-03-19 08:58:00,29.0,24.5,30.26,SSW,203,1.8,1.8,83,0.00,,,0.00,WUHU216HW,2013-03-19 15:58:00,
2013-03-19 09:03:00,29.0,24.5,30.26,SSW,203,1.8,1.8,83,0.00,,,0.00,WUHU216HW,2013-03-19 16:03:00,
2013-03-19 09:28:00,30.4,25.6,30.24,NE,45,1.6,1.6,82,0.00,,,0.00,WUHU216HW,2013-03-19 16:28:00,
2013-03-19 09:33:00,30.4,25.6,30.24,NE,45,1.6,1.6,82,0.00,,,0.00,WUHU216HW,2013-03-19 16:33:00,
2013-03-19 09:57:00,32.9,27.7,30.24,NE,45,2.0,2.0,81,0.00,,,0.00,WUHU216HW,2013-03-19 16:57:00,
2013-03-19 10:02:00,32.9,27.7,30.24,NE,45,2.0,2.0,81,0.00,,,0.00,WUHU216HW,2013-03-19 17:02:00,
2013-03-19 10:08:00,32.9,27.7,30.24,NE,45,2.0,2.0,81,0.00,,,0.00,WUHU216HW,2013-03-19 17:08:00,
2013-03-19 10:28:00,34.9,28.1,30.24,WNW,293,0.4,0.4,76,0.00,,,0.00,WUHU216HW,2013-03-19 17:28:00,
2013-03-19 10:33:00,34.9,28.1,30.24,WNW,293,0.4,0.4,76,0.00,,,0.00,WUHU216HW,2013-03-19 17:33:00,
2013-03-19 10:57:00,38.9,30.6,30.22,East,90,0.7,0.7,72,0.00,,,0.00,WUHU216HW,2013-03-19 17:57:00,
2013-03-19 11:02:00,38.9,30.6,30.22,East,90,0.7,0.7,72,0.00,,,0.00,WUHU216HW,2013-03-19 18:02:00,
2013-03-19 11:28:00,42.1,31.1,30.22,ESE,113,0.9,0.9,65,0.00,,,0.00,WUHU216HW,2013-03-19 18:28:00,
2013-03-19 11:33:00,42.1,31.1,30.22,ESE,113,0.9,0.9,65,0.00,,,0.00,WUHU216HW,2013-03-19 18:33:00,
2013-03-19 11:57:00,44.1,30.7,30.20,WNW,293,0.4,0.4,59,0.00,,,0.00,WUHU216HW,2013-03-19 18:57:00,
2013-03-19 12:02:00,44.1,30.7,30.20,WNW,293,0.4,0.4,59,0.00,,,0.00,WUHU216HW,2013-03-19 19:02:00,
2013-03-19 12:28:00,45.5,29.3,30.18,NE,45,3.8,3.8,53,0.00,,,0.00,WUHU216HW,2013-03-19 19:28:00,
2013-03-19 12:33:00,45.5,29.3,30.18,NE,45,3.8,3.8,53,0.00,,,0.00,WUHU216HW,2013-03-19 19:33:00,
2013-03-19 12:57:00,47.7,27.8,30.17,SE,135,0.2,0.2,46,0.00,,,0.00,WUHU216HW,2013-03-19 19:57:00,
2013-03-19 13:02:00,47.7,27.8,30.17,SE,135,0.2,0.2,46,0.00,,,0.00,WUHU216HW,2013-03-19 20:02:00,
2013-03-19 13:27:00,48.2,27.2,30.16,SW,225,0.7,0.7,44,0.00,,,0.00,WUHU216HW,2013-03-19 20:27:00,
2013-03-19 13:32:00,48.2,27.2,30.16,SW,225,0.7,0.7,44,0.00,,,0.00,WUHU216HW,2013-03-19 20:32:00,
2013-03-19 13:38:00,48.2,27.2,30.16,SW,225,0.7,0.7,44,0.00,,,0.00,WUHU216HW,2013-03-19 20:38:00,
2013-03-19 13:57:00,48.6,26.5,30.14,NNE,23,4.5,4.5,42,0.00,,,0.00,WUHU216HW,2013-03-19 20:57:00,
2013-03-19 14:02:00,48.6,25.4,30.14,NNE,23,4.5,4.5,40,0.00,,,0.00,WUHU216HW,2013-03-19 21:02:00,
2013-03-19 14:07:00,48.6,25.4,30.14,NNE,23,4.5,4.5,40,0.00,,,0.00,WUHU216HW,2013-03-19 21:07:00,
2013-03-19 14:27:00,49.7,25.7,30.11,NE,45,2.9,2.9,39,0.00,,,0.00,WUHU216HW,2013-03-19 21:27:00,
2013-03-19 14:33:00,49.7,25.7,30.11,NE,45,2.9,2.9,39,0.00,,,0.00,WUHU216HW,2013-03-19 21:33:00,
2013-03-19 14:57:00,49.3,24.7,30.10,ESE,113,2.9,2.9,38,0.00,,,0.00,WUHU216HW,2013-03-19 21:57:00,
2013-03-19 15:02:00,49.3,24.7,30.10,ESE,113,2.9,2.9,38,0.00,,,0.00,WUHU216HW,2013-03-19 22:02:00,
2013-03-19 15:07:00,49.3,24.7,30.10,ESE,113,2.9,2.9,38,0.00,,,0.00,WUHU216HW,2013-03-19 22:07:00,
2013-03-19 15:27:00,49.3,23.9,30.08,NE,45,2.7,2.7,37,0.00,,,0.00,WUHU216HW,2013-03-19 22:27:00,
2013-03-19 15:32:00,49.3,23.9,30.08,NE,45,2.7,2.7,37,0.00,,,0.00,WUHU216HW,2013-03-19 22:32:00,
2013-03-19 15:57:00,49.5,23.4,30.06,ENE,68,6.3,6.3,36,0.00,,,0.00,WUHU216HW,2013-03-19 22:57:00,
2013-03-19 16:02:00,49.5,23.4,30.06,ENE,68,6.3,6.3,36,0.00,,,0.00,WUHU216HW,2013-03-19 23:02:00,
2013-03-19 16:27:00,49.1,24.5,30.04,ESE,113,1.6,1.6,38,0.00,,,0.00,WUHU216HW,2013-03-19 23:27:00,
2013-03-19 16:32:00,49.1,24.5,30.04,ESE,113,1.6,1.6,38,0.00,,,0.00,WUHU216HW,2013-03-19 23:32:00,
2013-03-19 16:57:00,49.3,24.7,30.02,East,90,6.5,6.5,38,0.00,,,0.00,WUHU216HW,2013-03-19 23:57:00,
2013-03-19 17:02:00,49.3,24.7,30.02,East,90,6.5,6.5,38,0.00,,,0.00,WUHU216HW,2013-03-20 00:02:00,
2013-03-19 17:27:00,48.8,24.1,30.00,North,0,4.7,4.7,38,0.00,,,0.00,WUHU216HW,2013-03-20 00:27:00,
2013-03-19 17:33:00,48.8,24.1,30.00,North,0,4.7,4.7,38,0.00,,,0.00,WUHU216HW,2013-03-20 00:33:00,
2013-03-19 17:57:00,48.2,24.4,29.98,East,90,0.7,0.7,39,0.00,,,0.00,WUHU216HW,2013-03-20 00:57:00,
2013-03-19 18:03:00,48.2,24.4,29.98,East,90,0.7,0.7,39,0.00,,,0.00,WUHU216HW,2013-03-20 01:03:00,
2013-03-19 18:27:00,47.5,25.5,29.97,NNE,23,0.7,0.7,42,0.00,,,0.00,WUHU216HW,2013-03-20 01:27:00,
2013-03-19 18:32:00,47.5,25.5,29.97,NNE,23,0.7,0.7,42,0.00,,,0.00,WUHU216HW,2013-03-20 01:32:00,
2013-03-19 18:57:00,46.6,25.8,29.96,NNE,23,1.1,1.1,44,0.00,,,0.00,WUHU216HW,2013-03-20 01:57:00,
2013-03-19 19:02:00,46.6,25.8,29.96,NNE,23,1.1,1.1,44,0.00,,,0.00,WUHU216HW,2013-03-20 02:02:00,
2013-03-19 19:07:00,46.6,25.8,29.96,NNE,23,1.1,1.1,44,0.00,,,0.00,WUHU216HW,2013-03-20 02:07:00,
2013-03-19 19:27:00,45.7,26.0,29.93,North,0,0.0,0.0,46,0.00,,,0.00,WUHU216HW,2013-03-20 02:27:00,
2013-03-19 19:32:00,45.7,26.0,29.93,North,0,0.0,0.0,46,0.00,,,0.00,WUHU216HW,2013-03-20 02:32:00,
2013-03-19 19:57:00,44.3,26.8,29.92,NNE,23,1.1,1.1,50,0.00,,,0.00,WUHU216HW,2013-03-20 02:57:00,
2013-03-19 20:02:00,44.3,26.8,29.92,NNE,23,1.1,1.1,50,0.00,,,0.00,WUHU216HW,2013-03-20 03:02:00,
2013-03-19 20:07:00,44.3,26.8,29.92,NNE,23,1.1,1.1,50,0.00,,,0.00,WUHU216HW,2013-03-20 03:07:00,
2013-03-19 20:27:00,42.8,27.7,29.91,NE,45,0.2,0.2,55,0.00,,,0.00,WUHU216HW,2013-03-20 03:27:00,
2013-03-19 20:32:00,42.8,27.7,29.91,NE,45,0.2,0.2,55,0.00,,,0.00,WUHU216HW,2013-03-20 03:32:00,
2013-03-19 20:57:00,41.8,27.2,29.90,NE,45,0.0,0.0,56,0.00,,,0.00,WUHU216HW,2013-03-20 03:57:00,
2013-03-19 21:00:00,41.8,27.2,29.90,NE,45,0.0,0.0,56,0.00,,,0.00,WUHU216HW,2013-03-20 04:00:00,
2013-03-19 21:01:00,41.8,27.2,29.90,NE,45,0.0,0.0,56,0.00,,,0.00,WUHU216HW,2013-03-20 04:01:00,
2013-03-19 21:06:00,41.8,27.2,29.90,NE,45,0.0,0.0,56,0.00,,,0.00,WUHU216HW,2013-03-20 04:06:00,
2013-03-19 21:27:00,40.3,27.1,29.88,North,0,0.4,0.4,59,0.00,,,0.00,WUHU216HW,2013-03-20 04:27:00,
2013-03-19 21:32:00,40.3,27.1,29.88,North,0,0.4,0.4,59,0.00,,,0.00,WUHU216HW,2013-03-20 04:32:00,
2013-03-19 21:57:00,39.4,27.0,29.88,North,0,0.4,0.4,61,0.00,,,0.00,WUHU216HW,2013-03-20 04:57:00,
2013-03-19 22:02:00,39.4,27.0,29.88,North,0,0.4,0.4,61,0.00,,,0.00,WUHU216HW,2013-03-20 05:02:00,
2013-03-19 22:27:00,39.2,27.6,29.86,NNE,23,1.6,1.6,63,0.00,,,0.00,WUHU216HW,2013-03-20 05:27:00,
2013-03-19 22:32:00,39.2,27.6,29.86,NNE,23,1.6,1.6,63,0.00,,,0.00,WUHU216HW,2013-03-20 05:32:00,
2013-03-19 22:57:00,39.1,27.8,29.85,NE,45,0.9,0.9,64,0.00,,,0.00,WUHU216HW,2013-03-20 05:57:00,
2013-03-19 23:02:00,39.1,27.8,29.85,NE,45,0.9,0.9,64,0.00,,,0.00,WUHU216HW,2013-03-20 06:02:00,
2013-03-19 23:27:00,39.4,28.5,29.84,SW,225,0.0,0.0,65,0.00,,,0.00,WUHU216HW,2013-03-20 06:27:00,
2013-03-19 23:32:00,39.4,28.5,29.84,SW,225,0.0,0.0,65,0.00,,,0.00,WUHU216HW,2013-03-20 06:32:00,
2013-03-19 23:38:00,39.4,28.5,29.84,SW,225,0.0,0.0,65,0.00,,,0.00,WUHU216HW,2013-03-20 06:38:00,
2013-03-19 23:57:00,39.2,28.7,29.82,NNW,338,0.0,0.0,66,0.00,,,0.00,WUHU216HW,2013-03-20 06:57:00,